Hector, New York
Current Conditions -  °F | °C
As of 4:53 AM on Tuesday 21 Oct 2014 (Local Time) from KPEO Reporting Station
Light Rain Light Rain  
Wind Chill: 46°   Ceiling: 4500
Heat Index: 48°   Visibility: 7mi
Dew Point: 45°   Wind: 5mph
Humidity: 89%   Direction: 190°S
Pressure: 29.81"   Gusts: NA
Location:  42.5°N, 76.87°W
Report Text: KPEO 210853Z AUTO 19004KT 7SM -RA OVC045 09/07 A2981 RMK AO2 SLP096 P0001 60002 T00890072 56009 $
Loading
Personal Weather Stations






























Interactive Weather Map New forecast layout! Learn more

10-Day Weather Forecast

Advertisements
Track Severe Weather on mobile